Time;durP1;ratioP1;P1;durP2;ratioP2;P2;SDS_P1;SDS_P2;PMS_P1;PMS_P2;Temp;Humidity;BMP_temperature;BMP_pressure;BME280_temperature;BME280_humidity;BME280_pressure;Samples;Min_cycle;Max_cycle;Signal;HPM_P1;HPM_P2
2021/01/26 00:01:07;;;;;;;5.22;3.25;;;;;;;;;;5048239;28;20542;-69
2021/01/26 00:03:34;;;;;;;5.45;3.25;;;;;;;;;;5039081;28;20072;-71
2021/01/26 00:06:00;;;;;;;7.97;3.13;;;;;;;;;;5044795;28;20515;-69
2021/01/26 00:08:26;;;;;;;5.78;3.80;;;;;;;;;;5042521;28;20052;-69
2021/01/26 00:10:52;;;;;;;5.88;3.25;;;;;;;;;;5043993;28;20454;-69
2021/01/26 00:13:19;;;;;;;5.05;2.67;;;;;;;;;;5049915;28;20086;-69
2021/01/26 00:15:46;;;;;;;5.60;3.10;;;;;;;;;;5051111;28;20042;-69
2021/01/26 00:18:13;;;;;;;4.22;2.40;;;;;;;;;;5043865;28;20436;-69
2021/01/26 00:20:39;;;;;;;4.13;2.88;;;;;;;;;;5045293;28;20054;-69
2021/01/26 00:23:06;;;;;;;9.55;3.45;;;;;;;;;;5043302;28;20124;-69
2021/01/26 00:25:34;;;;;;;4.22;3.08;;;;;;;;;;5042169;28;20072;-69
2021/01/26 00:28:00;;;;;;;;;;;;;;;;;;5044417;28;20081;-70
2021/01/26 00:30:28;;;;;;;5.28;3.63;;;;;;;;;;5054077;28;20004;-69
2021/01/26 00:32:54;;;;;;;10.55;3.38;;;;;;;;;;5040994;28;20589;-69
2021/01/26 00:35:22;;;;;;;6.90;3.15;;;;;;;;;;5044881;28;20107;-69
2021/01/26 00:37:48;;;;;;;5.97;3.30;;;;;;;;;;5041964;28;20037;-70
2021/01/26 00:40:15;;;;;;;7.35;3.67;;;;;;;;;;5042164;28;20053;-69
2021/01/26 00:42:42;;;;;;;7.68;3.10;;;;;;;;;;5043651;28;20405;-69
2021/01/26 00:45:09;;;;;;;6.43;3.03;;;;;;;;;;5047102;28;20584;-69
2021/01/26 00:47:36;;;;;;;6.13;3.58;;;;;;;;;;5042932;28;20073;-69
2021/01/26 00:50:03;;;;;;;6.47;3.42;;;;;;;;;;5028099;28;20037;-69
2021/01/26 00:52:30;;;;;;;7.90;2.75;;;;;;;;;;5026177;28;20524;-69
2021/01/26 00:55:04;;;;;;;5.68;2.80;;;;;;;;;;5025593;28;20040;-70
2021/01/26 00:57:33;;;;;;;4.93;3.25;;;;;;;;;;5041572;28;20055;-69
2021/01/26 00:59:59;;;;;;;6.30;3.25;;;;;;;;;;5046890;28;20528;-69
2021/01/26 01:02:25;;;;;;;5.18;3.20;;;;;;;;;;5021756;28;20055;-69
2021/01/26 01:04:52;;;;;;;7.93;3.33;;;;;;;;;;5043326;28;20064;-69
2021/01/26 01:07:18;;;;;;;10.27;3.35;;;;;;;;;;5044363;28;20041;-69
2021/01/26 01:09:45;;;;;;;5.80;3.08;;;;;;;;;;5053272;28;20064;-69
2021/01/26 01:12:12;;;;;;;6.53;3.40;;;;;;;;;;5044152;28;20207;-69
2021/01/26 01:14:39;;;;;;;5.45;2.92;;;;;;;;;;5052163;28;20071;-70
2021/01/26 01:17:06;;;;;;;8.07;3.88;;;;;;;;;;5052148;28;20037;-69
2021/01/26 01:19:33;;;;;;;4.10;2.83;;;;;;;;;;5053778;28;20492;-69
2021/01/26 01:21:59;;;;;;;5.18;2.90;;;;;;;;;;5051406;28;20052;-70
2021/01/26 01:24:26;;;;;;;6.27;3.43;;;;;;;;;;5049016;28;20033;-70
2021/01/26 01:26:52;;;;;;;5.57;3.10;;;;;;;;;;5046274;28;20366;-69
2021/01/26 01:29:18;;;;;;;4.68;3.13;;;;;;;;;;5044503;28;20115;-69
2021/01/26 01:31:44;;;;;;;4.97;2.97;;;;;;;;;;5028541;28;20047;-70
2021/01/26 01:34:11;;;;;;;5.97;2.80;;;;;;;;;;5046360;28;20497;-69
2021/01/26 01:36:40;;;;;;;5.07;2.75;;;;;;;;;;5045734;28;20280;-69
2021/01/26 01:39:07;;;;;;;5.22;2.83;;;;;;;;;;5051801;28;20064;-69
2021/01/26 01:41:35;;;;;;;4.22;2.65;;;;;;;;;;5047914;28;20059;-69
2021/01/26 01:44:01;;;;;;;6.65;2.80;;;;;;;;;;5047167;28;20045;-70
2021/01/26 01:46:30;;;;;;;5.93;3.13;;;;;;;;;;5052948;28;20079;-69
2021/01/26 01:49:00;;;;;;;4.28;2.70;;;;;;;;;;5045703;28;20041;-69
2021/01/26 01:51:28;;;;;;;4.60;2.97;;;;;;;;;;5046462;28;20118;-70
2021/01/26 01:53:54;;;;;;;;;;;;;;;;;;5048657;28;20048;-69
2021/01/26 01:56:26;;;;;;;7.15;2.65;;;;;;;;;;5047672;28;20010;-69
2021/01/26 01:58:56;;;;;;;3.88;2.47;;;;;;;;;;5040029;28;20057;-69
2021/01/26 02:01:25;;;;;;;3.15;2.33;;;;;;;;;;5051343;28;20073;-69
2021/01/26 02:03:52;;;;;;;4.40;2.13;;;;;;;;;;5046285;28;20037;-69
2021/01/26 02:06:20;;;;;;;2.13;1.92;;;;;;;;;;5041112;28;20096;-69
2021/01/26 02:08:54;;;;;;;3.22;2.30;;;;;;;;;;5040881;28;20033;-69
2021/01/26 02:11:22;;;;;;;2.20;2.00;;;;;;;;;;5046778;28;20052;-69
2021/01/26 02:13:49;;;;;;;2.33;2.13;;;;;;;;;;5045986;28;20033;-69
2021/01/26 02:16:25;;;;;;;5.15;2.20;;;;;;;;;;5045047;28;20068;-69
2021/01/26 02:19:18;;;;;;;2.88;2.10;;;;;;;;;;5040839;28;20042;-70
2021/01/26 02:22:02;;;;;;;3.53;2.10;;;;;;;;;;5008063;28;20056;-69
2021/01/26 02:24:59;;;;;;;4.28;2.40;;;;;;;;;;5050117;28;20036;-69
2021/01/26 02:27:42;;;;;;;3.05;2.15;;;;;;;;;;5049068;28;20053;-69
2021/01/26 02:30:17;;;;;;;4.90;2.17;;;;;;;;;;5042930;28;20128;-69
2021/01/26 02:33:02;;;;;;;7.57;2.88;;;;;;;;;;5047263;28;20052;-70
2021/01/26 02:35:48;;;;;;;3.28;2.20;;;;;;;;;;5051696;28;20087;-70
2021/01/26 02:38:45;;;;;;;2.88;2.35;;;;;;;;;;5048078;28;20052;-69
2021/01/26 02:41:21;;;;;;;3.38;2.28;;;;;;;;;;5042795;28;20049;-69
2021/01/26 02:43:55;;;;;;;4.90;2.40;;;;;;;;;;5033659;28;20068;-69
2021/01/26 02:46:22;;;;;;;3.60;2.47;;;;;;;;;;5048020;28;20048;-70
2021/01/26 02:48:51;;;;;;;3.50;2.33;;;;;;;;;;5044770;28;20056;-69
2021/01/26 02:51:33;;;;;;;5.40;2.20;;;;;;;;;;5044583;28;20073;-70
2021/01/26 02:54:23;;;;;;;3.25;1.98;;;;;;;;;;5046083;28;20551;-70
2021/01/26 02:57:16;;;;;;;2.88;2.13;;;;;;;;;;5049780;28;20060;-70
2021/01/26 03:00:06;;;;;;;2.78;1.95;;;;;;;;;;5005457;28;20064;-69
2021/01/26 03:02:49;;;;;;;3.33;1.98;;;;;;;;;;5050050;28;20045;-70
2021/01/26 03:05:18;;;;;;;2.78;1.83;;;;;;;;;;5050041;28;20458;-70
2021/01/26 03:07:47;;;;;;;5.78;2.05;;;;;;;;;;5045387;28;20041;-70
2021/01/26 03:10:16;;;;;;;3.05;1.90;;;;;;;;;;5049460;28;20516;-69
2021/01/26 03:12:45;;;;;;;3.40;2.05;;;;;;;;;;5047744;28;20572;-69
2021/01/26 03:15:14;;;;;;;3.13;1.98;;;;;;;;;;5049126;28;20253;-69
2021/01/26 03:17:46;;;;;;;2.17;1.63;;;;;;;;;;5039620;28;20492;-69
2021/01/26 03:20:24;;;;;;;2.30;1.90;;;;;;;;;;5046170;28;20072;-69
2021/01/26 03:22:52;;;;;;;2.92;2.00;;;;;;;;;;5050866;28;20053;-70
2021/01/26 03:25:18;;;;;;;;;;;;;;;;;;5031768;28;20060;-69
2021/01/26 03:27:44;;;;;;;2.60;2.10;;;;;;;;;;5038196;28;20403;-70
2021/01/26 03:30:12;;;;;;;6.80;2.15;;;;;;;;;;5042146;28;20096;-69
2021/01/26 03:32:42;;;;;;;3.22;2.40;;;;;;;;;;5048179;28;20049;-69
2021/01/26 03:35:08;;;;;;;3.28;2.25;;;;;;;;;;5047912;28;20067;-69
2021/01/26 03:37:36;;;;;;;2.85;2.00;;;;;;;;;;5048496;28;20160;-69
2021/01/26 03:40:04;;;;;;;2.83;1.85;;;;;;;;;;5050277;28;20045;-70
2021/01/26 03:42:30;;;;;;;3.28;2.00;;;;;;;;;;5047099;28;20045;-69
2021/01/26 03:44:56;;;;;;;3.28;2.20;;;;;;;;;;5043126;28;20555;-69
2021/01/26 03:47:25;;;;;;;2.97;2.20;;;;;;;;;;5049482;28;20508;-69
2021/01/26 03:50:09;;;;;;;3.25;1.90;;;;;;;;;;5044763;28;20041;-70
2021/01/26 03:52:42;;;;;;;3.40;2.10;;;;;;;;;;5042104;28;20167;-69
2021/01/26 03:55:08;;;;;;;7.10;2.17;;;;;;;;;;5046233;28;20095;-70
2021/01/26 03:57:55;;;;;;;2.78;1.60;;;;;;;;;;5043530;28;20055;-69
2021/01/26 04:00:24;;;;;;;4.35;2.00;;;;;;;;;;5038893;28;20045;-69
2021/01/26 04:02:53;;;;;;;4.35;2.22;;;;;;;;;;5042086;28;20517;-69
2021/01/26 04:05:27;;;;;;;4.10;2.40;;;;;;;;;;5049090;28;20092;-69
2021/01/26 04:08:05;;;;;;;2.95;1.80;;;;;;;;;;5046907;28;20481;-69
2021/01/26 04:10:34;;;;;;;3.42;1.95;;;;;;;;;;5039750;28;20429;-69
2021/01/26 04:13:02;;;;;;;4.97;2.05;;;;;;;;;;5044879;28;20052;-69
2021/01/26 04:15:33;;;;;;;2.92;1.90;;;;;;;;;;5047100;28;20047;-70
2021/01/26 04:17:59;;;;;;;3.78;2.20;;;;;;;;;;5042868;28;20037;-70
2021/01/26 04:20:31;;;;;;;3.78;2.55;;;;;;;;;;5043353;28;20452;-69
2021/01/26 04:23:00;;;;;;;4.78;2.40;;;;;;;;;;5036371;28;20092;-69
2021/01/26 04:25:26;;;;;;;;;;;;;;;;;;5043610;28;20044;-69
2021/01/26 04:27:52;;;;;;;3.45;2.20;;;;;;;;;;5042986;28;19924;-69
2021/01/26 04:30:19;;;;;;;3.63;2.40;;;;;;;;;;5045898;28;20048;-69
2021/01/26 04:32:45;;;;;;;3.53;2.30;;;;;;;;;;5039042;28;20078;-70
2021/01/26 04:35:13;;;;;;;4.28;2.47;;;;;;;;;;5049132;28;20128;-69
2021/01/26 04:37:39;;;;;;;3.75;2.40;;;;;;;;;;5046032;28;20041;-69
2021/01/26 04:40:07;;;;;;;3.78;2.33;;;;;;;;;;5048744;28;20520;-69
2021/01/26 04:42:38;;;;;;;5.38;2.42;;;;;;;;;;5040483;28;20068;-70
2021/01/26 04:45:08;;;;;;;4.53;2.33;;;;;;;;;;5045739;28;20057;-70
2021/01/26 04:47:35;;;;;;;4.82;2.53;;;;;;;;;;5050340;28;20052;-69
2021/01/26 04:50:16;;;;;;;3.53;2.20;;;;;;;;;;5044581;28;20059;-69
2021/01/26 04:52:43;;;;;;;4.28;2.50;;;;;;;;;;5044112;28;20694;-70
2021/01/26 04:55:09;;;;;;;4.03;2.10;;;;;;;;;;5042290;28;20092;-69
2021/01/26 04:57:49;;;;;;;3.53;2.47;;;;;;;;;;5052657;28;20127;-69
2021/01/26 05:00:24;;;;;;;5.72;2.20;;;;;;;;;;5052822;28;20111;-69
2021/01/26 05:02:58;;;;;;;3.83;2.42;;;;;;;;;;5050182;28;20051;-69
2021/01/26 05:05:26;;;;;;;2.88;2.50;;;;;;;;;;5049062;28;20045;-70
2021/01/26 05:07:57;;;;;;;2.92;2.35;;;;;;;;;;5046754;28;20052;-70
2021/01/26 05:10:39;;;;;;;3.70;2.15;;;;;;;;;;5048169;28;20041;-69
2021/01/26 05:13:10;;;;;;;3.85;2.35;;;;;;;;;;5049838;28;20048;-69
2021/01/26 05:15:38;;;;;;;2.92;2.08;;;;;;;;;;5045422;28;20033;-69
2021/01/26 05:18:13;;;;;;;3.55;2.00;;;;;;;;;;5048389;28;20412;-69
2021/01/26 05:20:42;;;;;;;3.13;2.13;;;;;;;;;;5043475;28;20061;-69
2021/01/26 05:23:12;;;;;;;2.95;2.03;;;;;;;;;;5051597;28;20389;-69
2021/01/26 05:25:38;;;;;;;2.92;2.10;;;;;;;;;;5048203;28;20037;-69
2021/01/26 05:28:04;;;;;;;2.78;2.10;;;;;;;;;;5045993;28;20053;-69
2021/01/26 05:30:34;;;;;;;2.33;2.00;;;;;;;;;;5040093;28;20505;-69
2021/01/26 05:33:13;;;;;;;2.92;2.17;;;;;;;;;;5051110;28;20045;-69
2021/01/26 05:35:43;;;;;;;3.75;2.20;;;;;;;;;;5049210;28;20060;-69
2021/01/26 05:38:10;;;;;;;2.03;1.83;;;;;;;;;;5045364;28;20049;-69
2021/01/26 05:40:41;;;;;;;1.97;1.47;;;;;;;;;;5049343;28;20032;-69
2021/01/26 05:43:10;;;;;;;3.10;2.30;;;;;;;;;;5046154;28;20252;-69
2021/01/26 05:45:38;;;;;;;3.63;1.92;;;;;;;;;;5049375;28;20091;-69
2021/01/26 05:48:07;;;;;;;2.90;1.85;;;;;;;;;;5051939;28;20453;-69
2021/01/26 05:50:34;;;;;;;1.83;1.55;;;;;;;;;;5048310;28;20045;-69
2021/01/26 05:53:04;;;;;;;4.88;2.00;;;;;;;;;;5043810;28;20124;-69
2021/01/26 05:55:32;;;;;;;3.22;2.13;;;;;;;;;;5045026;28;20044;-69
2021/01/26 05:58:08;;;;;;;2.58;2.05;;;;;;;;;;5039074;28;20084;-69
2021/01/26 06:00:34;;;;;;;3.10;2.10;;;;;;;;;;5044626;28;20099;-69
2021/01/26 06:03:07;;;;;;;2.10;1.80;;;;;;;;;;5050259;28;20140;-69
2021/01/26 06:05:36;;;;;;;3.10;2.17;;;;;;;;;;5046158;28;20041;-69
2021/01/26 06:08:11;;;;;;;2.03;1.63;;;;;;;;;;5052716;28;20045;-69
2021/01/26 06:10:39;;;;;;;3.08;2.10;;;;;;;;;;5048330;28;20102;-69
2021/01/26 06:13:06;;;;;;;1.60;1.50;;;;;;;;;;5051919;28;20126;-69
2021/01/26 06:15:34;;;;;;;2.28;1.63;;;;;;;;;;5050572;28;20037;-69
2021/01/26 06:18:08;;;;;;;1.92;1.80;;;;;;;;;;5052650;28;20045;-69
2021/01/26 06:20:35;;;;;;;2.40;1.80;;;;;;;;;;5048811;28;20053;-69
2021/01/26 06:23:19;;;;;;;1.55;1.30;;;;;;;;;;5051270;28;20428;-69
2021/01/26 06:25:57;;;;;;;7.07;1.98;;;;;;;;;;5046897;28;20055;-69
2021/01/26 06:28:40;;;;;;;4.05;1.70;;;;;;;;;;5050616;28;20081;-70
2021/01/26 06:31:12;;;;;;;1.67;1.55;;;;;;;;;;5045096;28;20065;-69
2021/01/26 06:33:57;;;;;;;2.03;1.83;;;;;;;;;;5043027;28;20040;-69
2021/01/26 06:36:34;;;;;;;2.38;1.70;;;;;;;;;;5041855;28;20037;-69
2021/01/26 06:39:10;;;;;;;2.00;1.80;;;;;;;;;;5043161;28;20104;-69
2021/01/26 06:41:39;;;;;;;1.95;1.70;;;;;;;;;;5049155;28;20493;-69
2021/01/26 06:44:15;;;;;;;1.65;1.50;;;;;;;;;;5050393;28;20052;-69
2021/01/26 06:46:50;;;;;;;2.55;1.67;;;;;;;;;;5047740;28;20037;-69
2021/01/26 06:49:35;;;;;;;1.80;1.70;;;;;;;;;;5042712;28;20111;-69
2021/01/26 06:52:20;;;;;;;3.13;1.80;;;;;;;;;;5051888;28;20192;-70
2021/01/26 06:55:00;;;;;;;2.22;1.80;;;;;;;;;;5045780;28;20106;-69
2021/01/26 06:57:45;;;;;;;1.85;1.60;;;;;;;;;;5045924;28;20507;-70
2021/01/26 07:00:15;;;;;;;1.60;1.50;;;;;;;;;;5032735;28;20041;-69
2021/01/26 07:02:52;;;;;;;2.30;1.70;;;;;;;;;;5050716;28;20079;-70
2021/01/26 07:05:24;;;;;;;2.28;1.83;;;;;;;;;;5051274;28;20041;-69
2021/01/26 07:08:09;;;;;;;5.80;1.80;;;;;;;;;;5051109;28;20049;-69
2021/01/26 07:10:44;;;;;;;1.80;1.70;;;;;;;;;;5043327;28;20713;-69
2021/01/26 07:13:23;;;;;;;1.70;1.60;;;;;;;;;;5049348;28;20049;-69
2021/01/26 07:16:07;;;;;;;3.60;1.88;;;;;;;;;;5045477;28;20511;-69
2021/01/26 07:18:51;;;;;;;5.75;1.95;;;;;;;;;;5050476;28;20121;-69
2021/01/26 07:21:36;;;;;;;2.08;1.85;;;;;;;;;;5044225;28;20041;-69
2021/01/26 07:24:10;;;;;;;2.42;1.70;;;;;;;;;;5042935;28;20045;-69
2021/01/26 07:26:55;;;;;;;2.20;1.63;;;;;;;;;;5051182;28;20041;-69
2021/01/26 07:29:40;;;;;;;1.90;1.58;;;;;;;;;;5032419;28;20057;-70
2021/01/26 07:32:07;;;;;;;2.05;1.85;;;;;;;;;;5024195;28;20509;-69
2021/01/26 07:34:58;;;;;;;2.80;1.77;;;;;;;;;;5032127;28;20206;-69
2021/01/26 07:37:32;;;;;;;1.73;1.60;;;;;;;;;;5029724;28;20439;-69
2021/01/26 07:40:15;;;;;;;2.13;1.70;;;;;;;;;;5051172;28;20091;-68
2021/01/26 07:42:47;;;;;;;3.15;1.67;;;;;;;;;;5046500;28;20044;-69
2021/01/26 07:45:32;;;;;;;4.85;1.85;;;;;;;;;;5051411;28;20110;-69
2021/01/26 07:48:05;;;;;;;1.83;1.48;;;;;;;;;;5039097;28;20042;-68
2021/01/26 07:50:45;;;;;;;2.30;1.65;;;;;;;;;;5047467;28;20044;-68
2021/01/26 07:53:24;;;;;;;3.40;1.63;;;;;;;;;;5047459;28;20131;-69
2021/01/26 07:55:56;;;;;;;2.10;1.40;;;;;;;;;;5049155;28;20053;-68
2021/01/26 07:58:23;;;;;;;2.78;1.55;;;;;;;;;;5044426;28;20053;-68
2021/01/26 08:00:51;;;;;;;2.30;1.85;;;;;;;;;;5049515;28;20095;-69
2021/01/26 08:03:21;;;;;;;3.58;2.00;;;;;;;;;;5048530;28;20047;-69
2021/01/26 08:05:49;;;;;;;2.93;2.10;;;;;;;;;;5047206;28;20075;-69
2021/01/26 08:08:15;;;;;;;;;;;;;;;;;;5037406;28;20052;-69
2021/01/26 08:10:42;;;;;;;4.27;1.80;;;;;;;;;;5041232;28;19987;-69
2021/01/26 08:13:08;;;;;;;4.35;2.20;;;;;;;;;;5034018;28;20132;-69
2021/01/26 08:15:36;;;;;;;7.77;2.33;;;;;;;;;;5029007;28;20045;-69
2021/01/26 08:18:21;;;;;;;2.45;2.00;;;;;;;;;;5032988;28;20040;-68
2021/01/26 08:20:47;;;;;;;3.60;2.17;;;;;;;;;;5042675;28;20485;-69
2021/01/26 08:23:31;;;;;;;3.22;1.95;;;;;;;;;;5040173;28;20469;-69
2021/01/26 08:26:15;;;;;;;2.87;1.93;;;;;;;;;;5048611;28;20049;-68
2021/01/26 08:28:43;;;;;;;2.50;1.92;;;;;;;;;;5035504;28;20053;-68
2021/01/26 08:31:29;;;;;;;2.23;1.87;;;;;;;;;;5016481;28;20040;-69
2021/01/26 08:34:16;;;;;;;4.03;2.30;;;;;;;;;;5002137;28;20049;-69
2021/01/26 08:36:42;;;;;;;4.60;1.90;;;;;;;;;;5021388;28;20037;-69
2021/01/26 08:39:14;;;;;;;4.03;2.30;;;;;;;;;;5027191;28;20124;-68
2021/01/26 08:41:43;;;;;;;4.87;1.90;;;;;;;;;;5029447;28;20068;-69
2021/01/26 08:44:25;;;;;;;2.77;2.00;;;;;;;;;;5030183;28;20129;-69
2021/01/26 08:46:52;;;;;;;2.63;1.90;;;;;;;;;;5023119;28;20552;-68
2021/01/26 08:49:21;;;;;;;2.33;1.88;;;;;;;;;;5029184;28;20392;-69
2021/01/26 08:51:47;;;;;;;3.00;1.90;;;;;;;;;;5030252;28;20056;-69
2021/01/26 08:54:33;;;;;;;3.20;2.22;;;;;;;;;;5024346;28;20038;-68
2021/01/26 08:56:59;;;;;;;3.10;2.10;;;;;;;;;;5027447;28;20048;-69
2021/01/26 08:59:29;;;;;;;4.13;2.17;;;;;;;;;;5026267;28;20052;-69
2021/01/26 09:01:56;;;;;;;3.27;2.00;;;;;;;;;;5028750;28;20041;-68
2021/01/26 09:04:29;;;;;;;4.57;1.98;;;;;;;;;;5022521;28;20144;-69
2021/01/26 09:06:56;;;;;;;2.93;1.80;;;;;;;;;;5022746;28;20050;-68
2021/01/26 09:09:31;;;;;;;4.53;1.87;;;;;;;;;;5004882;28;20489;-68
2021/01/26 09:12:05;;;;;;;2.83;1.97;;;;;;;;;;5026062;28;20037;-68
2021/01/26 09:14:36;;;;;;;2.30;1.67;;;;;;;;;;5029320;28;20053;-68
2021/01/26 09:17:05;;;;;;;3.10;2.10;;;;;;;;;;5019202;28;20038;-68
2021/01/26 09:19:35;;;;;;;2.40;1.90;;;;;;;;;;5028011;28;20048;-68
2021/01/26 09:22:10;;;;;;;2.57;1.73;;;;;;;;;;5029166;28;20057;-69
2021/01/26 09:24:37;;;;;;;2.23;1.80;;;;;;;;;;5023835;28;20049;-69
2021/01/26 09:27:21;;;;;;;2.55;1.73;;;;;;;;;;5028475;28;20044;-68
2021/01/26 09:29:47;;;;;;;3.73;2.07;;;;;;;;;;5027901;28;20053;-69
2021/01/26 09:32:17;;;;;;;1.70;1.30;;;;;;;;;;5015051;28;20409;-68
2021/01/26 09:34:43;;;;;;;3.55;2.20;;;;;;;;;;5032604;28;20450;-68
2021/01/26 09:37:13;;;;;;;2.63;1.90;;;;;;;;;;5032228;28;20096;-69
2021/01/26 09:39:41;;;;;;;5.07;2.13;;;;;;;;;;5029734;28;20048;-68
2021/01/26 09:42:15;;;;;;;3.47;2.05;;;;;;;;;;5033449;28;20132;-68
2021/01/26 09:44:54;;;;;;;3.30;2.20;;;;;;;;;;5028849;28;20493;-69
2021/01/26 09:47:21;;;;;;;3.70;2.15;;;;;;;;;;5022459;28;20052;-69
2021/01/26 09:49:48;;;;;;;2.80;2.10;;;;;;;;;;5028902;28;20042;-69
2021/01/26 09:52:17;;;;;;;2.85;2.03;;;;;;;;;;5029653;28;20042;-68
2021/01/26 09:54:44;;;;;;;2.72;1.90;;;;;;;;;;5027092;28;20034;-68
2021/01/26 09:57:15;;;;;;;2.47;1.90;;;;;;;;;;5029271;28;20077;-68
2021/01/26 09:59:42;;;;;;;3.35;2.00;;;;;;;;;;5024961;28;20049;-68
2021/01/26 10:02:11;;;;;;;3.17;1.92;;;;;;;;;;5031290;28;20045;-68
2021/01/26 10:04:40;;;;;;;2.83;2.00;;;;;;;;;;5028904;28;20046;-68
2021/01/26 10:07:20;;;;;;;6.90;2.30;;;;;;;;;;5031445;28;20108;-67
2021/01/26 10:09:47;;;;;;;1.80;1.65;;;;;;;;;;5033101;28;20070;-68
2021/01/26 10:12:16;;;;;;;2.70;1.52;;;;;;;;;;5032394;28;20096;-68
2021/01/26 10:15:02;;;;;;;3.38;1.90;;;;;;;;;;5028699;28;20048;-68
2021/01/26 10:17:29;;;;;;;4.63;2.35;;;;;;;;;;5024327;28;20049;-68
2021/01/26 10:19:56;;;;;;;2.78;1.98;;;;;;;;;;5035356;28;20539;-67
2021/01/26 10:22:22;;;;;;;2.90;1.92;;;;;;;;;;5014143;28;20049;-67
2021/01/26 10:24:49;;;;;;;3.75;2.20;;;;;;;;;;5027419;28;20109;-68
2021/01/26 10:27:22;;;;;;;5.30;2.30;;;;;;;;;;5029259;28;20068;-67
2021/01/26 10:29:49;;;;;;;4.57;2.47;;;;;;;;;;5039680;28;20057;-68
2021/01/26 10:32:34;;;;;;;4.95;2.60;;;;;;;;;;5049397;28;20306;-67
2021/01/26 10:35:01;;;;;;;4.72;2.72;;;;;;;;;;5043939;28;20113;-67
2021/01/26 10:37:30;;;;;;;4.57;2.45;;;;;;;;;;5050163;28;20378;-67
2021/01/26 10:40:10;;;;;;;8.98;2.42;;;;;;;;;;5052192;28;20041;-67
2021/01/26 10:42:38;;;;;;;3.38;2.00;;;;;;;;;;5051016;28;20044;-67
2021/01/26 10:45:04;;;;;;;3.00;1.67;;;;;;;;;;5051586;28;20049;-68
2021/01/26 10:47:36;;;;;;;2.53;1.70;;;;;;;;;;5055879;28;20032;-67
2021/01/26 10:50:25;;;;;;;2.58;1.63;;;;;;;;;;5048806;28;20119;-67
2021/01/26 10:52:53;;;;;;;3.58;1.75;;;;;;;;;;5042640;28;20045;-67
2021/01/26 10:55:21;;;;;;;2.25;1.65;;;;;;;;;;5048289;28;20037;-67
2021/01/26 10:57:48;;;;;;;2.13;1.60;;;;;;;;;;5048292;28;20064;-68
2021/01/26 11:00:15;;;;;;;2.53;1.40;;;;;;;;;;5043217;28;20124;-67
2021/01/26 11:02:42;;;;;;;2.28;1.58;;;;;;;;;;5048096;28;20044;-67
2021/01/26 11:05:10;;;;;;;5.53;1.90;;;;;;;;;;5045307;28;20061;-67
2021/01/26 11:07:37;;;;;;;1.73;1.40;;;;;;;;;;5044222;28;20064;-67
2021/01/26 11:10:04;;;;;;;2.25;1.50;;;;;;;;;;5038916;28;20786;-67
2021/01/26 11:12:30;;;;;;;2.72;1.60;;;;;;;;;;5050610;28;20107;-67
2021/01/26 11:14:57;;;;;;;2.17;1.67;;;;;;;;;;5050663;28;20041;-67
2021/01/26 11:17:23;;;;;;;1.42;1.15;;;;;;;;;;5025733;28;20045;-67
2021/01/26 11:19:50;;;;;;;1.55;1.35;;;;;;;;;;5050140;28;20064;-67
2021/01/26 11:22:16;;;;;;;4.03;1.58;;;;;;;;;;5050241;28;20072;-67
2021/01/26 11:24:43;;;;;;;2.37;1.50;;;;;;;;;;5051641;28;20045;-67
2021/01/26 11:27:13;;;;;;;2.85;1.60;;;;;;;;;;5039309;28;20041;-67
2021/01/26 11:29:39;;;;;;;4.38;1.50;;;;;;;;;;5049964;28;20057;-67
2021/01/26 11:32:05;;;;;;;1.52;1.42;;;;;;;;;;5050969;28;20634;-67
2021/01/26 11:34:33;;;;;;;1.95;1.50;;;;;;;;;;5042357;28;20108;-67
2021/01/26 11:36:59;;;;;;;;;;;;;;;;;;5043228;28;20444;-67
2021/01/26 11:39:25;;;;;;;2.67;1.50;;;;;;;;;;5044572;28;20343;-67
2021/01/26 11:41:52;;;;;;;1.67;1.08;;;;;;;;;;5046643;28;20131;-67
2021/01/26 11:44:18;;;;;;;2.33;1.55;;;;;;;;;;5044343;28;20050;-67
2021/01/26 11:46:45;;;;;;;1.92;1.50;;;;;;;;;;5050394;28;20037;-67
2021/01/26 11:49:11;;;;;;;5.30;1.65;;;;;;;;;;5049160;28;20495;-67
2021/01/26 11:51:38;;;;;;;2.17;1.40;;;;;;;;;;5046439;28;20045;-67
2021/01/26 11:54:04;;;;;;;1.55;1.42;;;;;;;;;;5047979;28;20059;-67
2021/01/26 11:56:30;;;;;;;7.15;1.90;;;;;;;;;;5048642;28;20037;-67
2021/01/26 11:58:56;;;;;;;2.47;1.60;;;;;;;;;;5048872;28;20053;-67
2021/01/26 12:01:23;;;;;;;2.08;1.52;;;;;;;;;;5047801;28;20043;-67
2021/01/26 12:03:49;;;;;;;3.80;1.50;;;;;;;;;;5031761;28;20395;-67
2021/01/26 12:06:16;;;;;;;1.83;1.25;;;;;;;;;;5047404;28;20045;-67
2021/01/26 12:08:42;;;;;;;2.08;1.77;;;;;;;;;;5028767;28;20060;-67
2021/01/26 12:11:09;;;;;;;1.95;1.60;;;;;;;;;;5045909;28;20041;-67
2021/01/26 12:13:35;;;;;;;3.45;1.60;;;;;;;;;;5044316;28;20114;-67
2021/01/26 12:16:01;;;;;;;2.58;1.77;;;;;;;;;;5029843;28;20037;-66
2021/01/26 12:18:27;;;;;;;3.25;1.90;;;;;;;;;;5041320;28;20072;-67
2021/01/26 12:20:54;;;;;;;2.72;1.55;;;;;;;;;;5049023;28;20051;-67
2021/01/26 12:23:21;;;;;;;2.10;1.60;;;;;;;;;;5050972;28;20132;-67
2021/01/26 12:25:47;;;;;;;2.95;1.90;;;;;;;;;;5050304;28;20108;-67
2021/01/26 12:28:13;;;;;;;3.80;1.95;;;;;;;;;;5043250;28;20100;-67
2021/01/26 12:30:39;;;;;;;2.42;1.60;;;;;;;;;;5050023;28;20558;-67
2021/01/26 12:33:06;;;;;;;3.88;1.70;;;;;;;;;;5055522;28;20045;-67
2021/01/26 12:35:34;;;;;;;2.53;1.60;;;;;;;;;;5046499;28;20099;-67
2021/01/26 12:38:01;;;;;;;3.28;1.65;;;;;;;;;;5044380;28;20525;-67
2021/01/26 12:40:28;;;;;;;2.20;1.55;;;;;;;;;;5050799;28;20044;-67
2021/01/26 12:42:55;;;;;;;1.98;1.30;;;;;;;;;;5043759;28;20128;-67
2021/01/26 12:45:22;;;;;;;2.85;1.67;;;;;;;;;;5046232;28;20045;-68
2021/01/26 12:47:49;;;;;;;2.70;1.40;;;;;;;;;;5042267;28;20043;-67
2021/01/26 12:50:17;;;;;;;2.25;1.40;;;;;;;;;;5050427;28;20451;-67
2021/01/26 12:52:43;;;;;;;2.78;1.70;;;;;;;;;;5047742;28;20045;-67
2021/01/26 12:55:09;;;;;;;7.50;1.52;;;;;;;;;;5048317;28;21515;-68
2021/01/26 12:57:36;;;;;;;2.83;1.40;;;;;;;;;;5048802;28;20056;-67
2021/01/26 13:00:08;;;;;;;1.80;1.25;;;;;;;;;;5056781;28;20400;-68
2021/01/26 13:02:34;;;;;;;1.90;1.52;;;;;;;;;;5051397;28;20045;-68
2021/01/26 13:05:01;;;;;;;2.28;1.40;;;;;;;;;;5045083;28;20069;-67
2021/01/26 13:07:27;;;;;;;1.95;1.40;;;;;;;;;;5054457;28;20051;-68
2021/01/26 13:09:54;;;;;;;1.90;1.40;;;;;;;;;;5049496;28;20556;-68
2021/01/26 13:12:20;;;;;;;2.08;1.35;;;;;;;;;;5046708;28;20394;-68
2021/01/26 13:14:46;;;;;;;2.80;1.60;;;;;;;;;;5049045;28;20041;-68
2021/01/26 13:17:13;;;;;;;2.45;1.30;;;;;;;;;;5060633;28;20070;-68
2021/01/26 13:19:39;;;;;;;1.90;1.25;;;;;;;;;;5052721;28;20045;-68
2021/01/26 13:22:05;;;;;;;2.15;1.58;;;;;;;;;;5046848;28;20060;-68
2021/01/26 13:24:32;;;;;;;2.03;1.48;;;;;;;;;;5055245;28;20075;-68
2021/01/26 13:26:59;;;;;;;2.27;1.37;;;;;;;;;;5053284;28;20041;-68
2021/01/26 13:29:25;;;;;;;1.88;1.20;;;;;;;;;;5050129;28;20160;-68
2021/01/26 13:31:52;;;;;;;3.20;1.27;;;;;;;;;;5055152;28;20487;-68
2021/01/26 13:34:18;;;;;;;2.17;1.30;;;;;;;;;;5049510;28;20302;-69
2021/01/26 13:36:45;;;;;;;3.38;1.35;;;;;;;;;;5055300;28;20501;-69
2021/01/26 13:39:14;;;;;;;2.85;1.40;;;;;;;;;;5054635;28;20519;-69
2021/01/26 13:41:45;;;;;;;2.13;1.48;;;;;;;;;;5055194;28;20036;-69
2021/01/26 13:44:12;;;;;;;2.08;1.60;;;;;;;;;;5052852;28;20439;-69
2021/01/26 13:46:39;;;;;;;5.97;1.40;;;;;;;;;;5033168;28;20492;-70
2021/01/26 13:49:05;;;;;;;2.42;1.17;;;;;;;;;;5048655;28;20079;-69
2021/01/26 13:51:34;;;;;;;4.57;1.30;;;;;;;;;;5047264;28;20091;-70
2021/01/26 13:54:03;;;;;;;3.20;1.35;;;;;;;;;;5054318;28;20056;-70
2021/01/26 13:56:29;;;;;;;2.22;1.60;;;;;;;;;;5047936;28;20055;-71
2021/01/26 13:58:56;;;;;;;2.00;1.10;;;;;;;;;;5049941;28;20041;-70
2021/01/26 14:01:22;;;;;;;2.67;1.50;;;;;;;;;;5045009;28;20312;-70
2021/01/26 14:03:49;;;;;;;6.68;1.20;;;;;;;;;;5054312;28;20036;-70
2021/01/26 14:06:15;;;;;;;1.85;1.38;;;;;;;;;;5054339;28;20095;-70
2021/01/26 14:08:42;;;;;;;2.88;1.25;;;;;;;;;;5053525;28;20037;-70
2021/01/26 14:11:08;;;;;;;1.95;1.40;;;;;;;;;;5051500;28;20132;-71
2021/01/26 14:13:35;;;;;;;2.03;1.50;;;;;;;;;;5052831;28;20095;-71
2021/01/26 14:16:01;;;;;;;3.22;1.38;;;;;;;;;;5054675;28;20051;-71
2021/01/26 14:18:27;;;;;;;2.88;1.35;;;;;;;;;;5054011;28;20056;-71
2021/01/26 14:20:54;;;;;;;2.60;1.48;;;;;;;;;;5038502;28;20393;-71
2021/01/26 14:23:21;;;;;;;1.90;1.30;;;;;;;;;;5047782;28;20095;-70
2021/01/26 14:25:48;;;;;;;3.78;1.40;;;;;;;;;;5052929;28;20025;-71
2021/01/26 14:28:15;;;;;;;1.45;1.05;;;;;;;;;;5050653;28;20053;-71
2021/01/26 14:30:41;;;;;;;3.45;0.95;;;;;;;;;;5048937;28;20049;-71
2021/01/26 14:33:07;;;;;;;2.95;1.30;;;;;;;;;;5042303;28;20044;-71
2021/01/26 14:35:34;;;;;;;2.67;1.40;;;;;;;;;;5045611;28;20136;-70
2021/01/26 14:38:00;;;;;;;1.80;1.40;;;;;;;;;;5048625;28;20381;-71
2021/01/26 14:40:27;;;;;;;3.58;1.20;;;;;;;;;;5050230;28;20508;-70
2021/01/26 14:42:54;;;;;;;3.78;1.27;;;;;;;;;;5049620;28;20076;-70
2021/01/26 14:45:20;;;;;;;1.92;1.58;;;;;;;;;;5045965;28;20040;-71
2021/01/26 14:47:49;;;;;;;1.40;1.30;;;;;;;;;;5046336;28;20069;-71
2021/01/26 14:50:18;;;;;;;1.70;1.30;;;;;;;;;;5043934;28;20045;-71
2021/01/26 14:52:44;;;;;;;1.83;1.20;;;;;;;;;;5044868;28;20545;-71
2021/01/26 14:55:11;;;;;;;2.10;1.13;;;;;;;;;;5048738;28;20048;-70
2021/01/26 14:57:38;;;;;;;1.77;1.30;;;;;;;;;;5049960;28;20114;-70
2021/01/26 15:00:05;;;;;;;0.98;0.93;;;;;;;;;;5044402;28;20037;-70
2021/01/26 15:02:31;;;;;;;2.97;1.58;;;;;;;;;;5051086;28;20088;-70
2021/01/26 15:04:58;;;;;;;2.03;1.40;;;;;;;;;;5049691;28;20041;-70